Time;durP1;ratioP1;P1;durP2;ratioP2;P2;SDS_P1;SDS_P2;PMS_P1;PMS_P2;Temp;Humidity;BMP_temperature;BMP_pressure;BME280_temperature;BME280_humidity;BME280_pressure;Samples;Min_cycle;Max_cycle;Signal;HPM_P1;HPM_P2
2021/04/23 00:01:07;;;;;;;2.70;0.90;;;;;;;1.65;76.81;99599.69;1769093;80;22154;-69
2021/04/23 00:03:54;;;;;;;2.33;0.60;;;;;;;1.68;76.72;99596.66;1765994;80;21045;-69
2021/04/23 00:06:38;;;;;;;1.22;0.70;;;;;;;1.69;76.73;99596.22;1763802;80;21015;-69
2021/04/23 00:09:13;;;;;;;1.12;0.50;;;;;;;1.71;76.81;99594.05;1760920;80;21187;-69
2021/04/23 00:11:54;;;;;;;1.25;0.60;;;;;;;1.73;76.73;99601.73;1762713;80;21121;-70
2021/04/23 00:14:26;;;;;;;1.72;0.88;;;;;;;1.71;76.79;99593.17;1768004;80;21411;-69
2021/04/23 00:16:54;;;;;;;3.35;1.00;;;;;;;1.72;76.79;99597.47;1762110;80;21050;-69
2021/04/23 00:19:25;;;;;;;2.58;0.90;;;;;;;1.73;76.71;99595.30;1767611;80;21168;-69
2021/04/23 00:21:53;;;;;;;4.50;0.90;;;;;;;1.72;76.71;99601.33;1766411;80;21092;-69
2021/04/23 00:24:21;;;;;;;3.47;0.72;;;;;;;1.73;76.70;99596.58;1766978;80;21220;-69
2021/04/23 00:26:48;;;;;;;;;;;;;;;1.70;76.64;99597.91;1767858;80;21713;-70
2021/04/23 00:29:16;;;;;;;1.25;0.60;;;;;;;1.67;76.61;99603.10;1761802;80;24824;-69
2021/04/23 00:31:47;;;;;;;2.50;0.80;;;;;;;1.65;76.72;99603.55;1763121;79;21162;-69
2021/04/23 00:34:14;;;;;;;1.30;0.65;;;;;;;1.66;76.70;99605.27;1766761;80;21640;-70
2021/04/23 00:36:41;;;;;;;3.90;0.72;;;;;;;1.68;76.69;99603.51;1767001;80;21187;-70
2021/04/23 00:39:08;;;;;;;2.77;0.75;;;;;;;1.68;76.67;99600.93;1768573;80;21226;-69
2021/04/23 00:41:36;;;;;;;1.87;0.60;;;;;;;1.71;76.64;99598.31;1755776;80;21190;-69
2021/04/23 00:44:04;;;;;;;1.40;0.80;;;;;;;1.70;76.56;99600.48;1753264;80;21057;-69
2021/04/23 00:46:34;;;;;;;2.47;1.05;;;;;;;1.68;76.58;99597.07;1758244;80;21069;-70
2021/04/23 00:49:02;;;;;;;6.92;1.77;;;;;;;1.66;76.57;99591.12;1753722;80;21128;-69
2021/04/23 00:51:37;;;;;;;4.17;1.55;;;;;;;1.60;76.43;99592.45;1753146;80;21406;-69
2021/04/23 00:54:07;;;;;;;2.37;1.17;;;;;;;1.49;76.43;99593.47;1758986;80;21631;-71
2021/04/23 00:56:37;;;;;;;2.02;1.00;;;;;;;1.39;76.40;99589.30;1751532;80;21002;-70
2021/04/23 00:59:09;;;;;;;5.12;1.00;;;;;;;1.31;76.40;99584.67;1758734;80;21164;-69
2021/04/23 01:01:44;;;;;;;2.02;0.88;;;;;;;1.23;76.48;99585.19;1757585;80;21179;-71
2021/04/23 01:04:18;;;;;;;4.55;1.15;;;;;;;1.17;76.57;99586.55;1698544;82;21521;-70
2021/04/23 01:06:45;;;;;;;4.72;1.05;;;;;;;1.11;76.60;99587.03;1691996;83;21241;-70
2021/04/23 01:09:15;;;;;;;;;;;;;;;1.04;76.61;99585.41;1704545;83;21313;-70
2021/04/23 01:11:43;;;;;;;1.98;1.10;;;;;;;0.98;76.63;99576.48;1709860;82;20247;-70
2021/04/23 01:14:10;;;;;;;7.25;1.30;;;;;;;0.91;76.65;99579.98;1690303;84;21573;-70
2021/04/23 01:16:39;;;;;;;4.78;1.05;;;;;;;0.83;76.63;99579.20;1709788;82;21377;-70
2021/04/23 01:19:10;;;;;;;4.25;1.10;;;;;;;0.77;76.71;99580.55;1687717;84;21104;-69
2021/04/23 01:21:38;;;;;;;3.15;1.20;;;;;;;0.74;76.74;99580.58;1700434;83;21620;-70
2021/04/23 01:24:08;;;;;;;2.72;1.17;;;;;;;0.71;76.81;99580.62;1696156;83;21161;-70
2021/04/23 01:26:43;;;;;;;3.60;1.32;;;;;;;0.70;76.90;99569.90;1689606;83;21210;-70
2021/04/23 01:29:13;;;;;;;4.45;1.20;;;;;;;0.69;76.85;99572.06;1714611;83;22252;-70
2021/04/23 01:31:44;;;;;;;2.08;1.00;;;;;;;0.69;76.84;99572.06;1693373;83;21173;-70
2021/04/23 01:34:22;;;;;;;2.62;1.00;;;;;;;0.68;76.94;99570.38;1673239;84;21231;-69
2021/04/23 01:36:52;;;;;;;3.05;1.40;;;;;;;0.68;76.94;99571.66;1704332;83;21181;-70
2021/04/23 01:39:23;;;;;;;4.53;1.25;;;;;;;0.72;76.94;99569.46;1689876;84;21738;-70
2021/04/23 01:41:53;;;;;;;3.12;1.20;;;;;;;0.75;76.96;99571.56;1688275;83;21213;-70
2021/04/23 01:44:22;;;;;;;3.40;1.40;;;;;;;0.79;76.95;99569.83;1674233;84;21185;-70
2021/04/23 01:46:50;;;;;;;2.98;1.25;;;;;;;0.79;76.88;99569.83;1688314;83;21246;-70
2021/04/23 01:49:20;;;;;;;2.62;1.00;;;;;;;0.82;76.94;99571.08;1690257;83;21136;-70
2021/04/23 01:51:58;;;;;;;2.55;1.02;;;;;;;0.84;76.92;99562.90;1689843;83;21794;-69
2021/04/23 01:54:34;;;;;;;1.45;0.93;;;;;;;0.92;76.92;99569.25;1802631;77;20957;-68
2021/04/23 01:57:01;;;;;;;;;;;;;;;0.91;76.90;99555.55;1770232;80;21039;-68
2021/04/23 01:59:28;;;;;;;;;;;;;;;0.94;76.83;99563.23;1766211;80;21194;-69
2021/04/23 02:01:58;;;;;;;5.22;1.10;;;;;;;0.95;76.79;99562.35;1767357;80;26438;-68
2021/04/23 02:04:26;;;;;;;2.25;1.00;;;;;;;0.93;76.74;99555.55;1762875;80;21064;-68
2021/04/23 02:06:56;;;;;;;3.42;1.22;;;;;;;0.90;76.68;99551.30;1767655;80;21064;-68
2021/04/23 02:09:23;;;;;;;2.58;0.95;;;;;;;0.86;76.64;99547.03;1769557;80;20986;-69
2021/04/23 02:11:52;;;;;;;6.42;1.52;;;;;;;0.81;76.63;99551.37;1765476;80;21578;-70
2021/04/23 02:14:22;;;;;;;5.37;1.35;;;;;;;0.77;76.66;99547.14;1763801;79;22214;-69
2021/04/23 02:16:49;;;;;;;4.25;1.95;;;;;;;0.74;76.71;99547.17;1765601;80;22325;-69
2021/04/23 02:19:18;;;;;;;3.37;1.45;;;;;;;0.71;76.71;99553.20;1767207;80;21195;-69
2021/04/23 02:21:47;;;;;;;4.72;1.55;;;;;;;0.71;76.73;99550.63;1768561;80;21141;-69
2021/04/23 02:24:15;;;;;;;7.10;1.65;;;;;;;0.71;76.74;99549.78;1767776;80;21200;-69
2021/04/23 02:26:43;;;;;;;4.47;1.52;;;;;;;0.69;76.71;99547.65;1766873;80;21036;-69
2021/04/23 02:29:14;;;;;;;10.43;1.70;;;;;;;0.68;76.76;99554.95;1769165;80;21111;-69
2021/04/23 02:31:48;;;;;;;6.58;1.57;;;;;;;0.65;76.74;99551.53;1768651;80;21156;-70
2021/04/23 02:34:18;;;;;;;4.22;1.55;;;;;;;0.65;76.74;99548.97;1765681;80;21155;-70
2021/04/23 02:36:45;;;;;;;2.72;1.65;;;;;;;0.66;76.82;99563.51;1764666;80;21423;-70
2021/04/23 02:39:15;;;;;;;6.53;2.02;;;;;;;0.66;76.81;99557.52;1767889;79;21029;-70
2021/04/23 02:41:44;;;;;;;3.27;1.60;;;;;;;0.68;76.84;99562.66;1767012;80;21171;-69
2021/04/23 02:44:12;;;;;;;3.70;1.85;;;;;;;0.68;76.83;99567.80;1763667;80;21220;-69
2021/04/23 02:46:39;;;;;;;7.25;2.20;;;;;;;0.66;76.81;99567.36;1767384;79;21196;-69
2021/04/23 02:49:07;;;;;;;8.20;1.90;;;;;;;0.66;76.85;99562.22;1767757;80;21212;-69
2021/04/23 02:51:41;;;;;;;5.42;1.90;;;;;;;0.64;76.85;99565.27;1770750;80;21235;-69
2021/04/23 02:54:11;;;;;;;4.90;1.90;;;;;;;0.66;76.89;99566.08;1768154;80;21199;-69
2021/04/23 02:56:39;;;;;;;4.95;1.50;;;;;;;0.70;76.95;99563.47;1763260;80;21238;-69
2021/04/23 02:59:08;;;;;;;5.25;2.27;;;;;;;0.74;76.95;99562.59;1764471;80;21239;-69
2021/04/23 03:01:40;;;;;;;3.47;1.82;;;;;;;0.77;76.92;99557.42;1766550;80;21606;-69
2021/04/23 03:04:07;;;;;;;9.88;1.92;;;;;;;0.81;76.85;99555.22;1762303;80;21058;-69
2021/04/23 03:06:35;;;;;;;4.05;2.10;;;;;;;0.81;76.85;99568.08;1764484;80;25030;-69
2021/04/23 03:09:04;;;;;;;;;;;;;;;0.78;76.85;99574.53;1750451;80;21191;-69
2021/04/23 03:11:31;;;;;;;8.95;2.20;;;;;;;0.76;76.89;99575.00;1766691;80;20216;-69
2021/04/23 03:14:00;;;;;;;9.25;2.25;;;;;;;0.76;76.93;99577.58;1763914;80;21187;-70
2021/04/23 03:16:29;;;;;;;7.33;2.45;;;;;;;0.76;76.94;99576.29;1764130;80;21171;-69
2021/04/23 03:18:57;;;;;;;6.65;2.25;;;;;;;0.77;77.05;99575.41;1770000;80;21073;-70
2021/04/23 03:21:27;;;;;;;5.92;2.30;;;;;;;0.79;77.02;99571.96;1765193;80;21693;-69
2021/04/23 03:23:55;;;;;;;6.20;2.35;;;;;;;0.82;77.08;99567.23;1761827;80;21068;-70
2021/04/23 03:26:25;;;;;;;5.28;2.25;;;;;;;0.84;77.08;99571.89;1763189;80;21645;-70
2021/04/23 03:28:52;;;;;;;7.25;2.00;;;;;;;0.87;77.12;99564.18;1750717;80;21096;-70
2021/04/23 03:31:21;;;;;;;4.15;1.77;;;;;;;0.94;77.15;99545.23;1766947;80;21211;-69
2021/04/23 03:33:48;;;;;;;4.15;2.22;;;;;;;1.00;77.16;99537.45;1765336;80;21171;-69
2021/04/23 03:36:16;;;;;;;8.83;2.62;;;;;;;1.08;77.08;99543.36;1764026;80;21195;-70
2021/04/23 03:38:46;;;;;;;8.08;2.12;;;;;;;1.13;77.01;99552.75;1765038;80;21262;-70
2021/04/23 03:41:26;;;;;;;7.33;2.08;;;;;;;1.16;77.00;99550.14;1770059;80;22269;-72
2021/04/23 03:43:54;;;;;;;7.42;2.40;;;;;;;1.21;77.02;99566.37;1772579;80;21165;-72
2021/04/23 03:46:21;;;;;;;3.05;1.80;;;;;;;1.40;77.31;99577.27;1770185;80;21291;-71
2021/04/23 03:48:48;;;;;;;3.75;2.22;;;;;;;2.04;77.86;99576.39;1764526;80;21198;-71
2021/04/23 03:51:18;;;;;;;7.72;2.50;;;;;;;2.90;77.58;99573.25;1744053;80;21273;-71
2021/04/23 03:53:47;;;;;;;5.03;1.87;;;;;;;3.70;77.26;99563.92;1758631;80;21208;-71
2021/04/23 03:56:16;;;;;;;4.10;2.08;;;;;;;4.53;76.93;99577.47;1746127;81;21086;-71
2021/04/23 03:58:43;;;;;;;5.35;2.00;;;;;;;5.37;76.67;99571.80;1750397;81;21041;-71
2021/04/23 04:01:14;;;;;;;5.87;2.33;;;;;;;6.12;76.00;99584.30;1745715;80;21190;-72
2021/04/23 04:03:43;;;;;;;4.50;2.00;;;;;;;6.78;75.70;99577.81;1748257;80;21196;-71
2021/04/23 04:06:10;;;;;;;4.47;1.95;;;;;;;7.46;75.25;99575.42;1740506;81;21644;-71
2021/04/23 04:08:38;;;;;;;4.95;1.98;;;;;;;7.97;74.61;99575.66;1745451;81;21159;-71
2021/04/23 04:11:06;;;;;;;5.42;2.15;;;;;;;8.54;74.67;99571.64;1749121;81;21123;-71
2021/04/23 04:13:34;;;;;;;5.58;2.02;;;;;;;9.05;73.78;99589.91;1745235;81;21232;-72
2021/04/23 04:16:03;;;;;;;4.20;2.02;;;;;;;9.51;73.71;99589.17;1753232;80;21744;-71
2021/04/23 04:18:31;;;;;;;4.70;2.00;;;;;;;9.82;72.70;99607.33;1748092;81;21185;-71
2021/04/23 04:20:58;;;;;;;5.20;1.87;;;;;;;9.75;72.47;99604.63;1741412;81;21052;-72
2021/04/23 04:23:25;;;;;;;;;;;;;;;9.19;71.30;99613.59;1759614;80;21642;-71
2021/04/23 04:25:56;;;;;;;4.05;2.00;;;;;;;8.20;71.60;99610.69;1749201;81;20152;-71
2021/04/23 04:28:26;;;;;;;7.47;2.65;;;;;;;7.56;72.44;99618.33;1745914;81;22572;-72
2021/04/23 04:30:53;;;;;;;5.30;2.60;;;;;;;7.67;73.11;99618.78;1746163;81;21139;-73
2021/04/23 04:33:21;;;;;;;5.67;2.15;;;;;;;7.57;72.95;99587.11;1746809;80;21608;-73
2021/04/23 04:35:48;;;;;;;;;;;;;;;7.52;73.02;99592.08;1747418;80;21142;-72
2021/04/23 04:38:16;;;;;;;4.92;2.12;;;;;;;7.79;72.46;99611.84;1753052;80;20238;-72
2021/04/23 04:40:47;;;;;;;7.60;2.12;;;;;;;7.57;72.52;99609.66;1746330;81;22236;-72
2021/04/23 04:43:17;;;;;;;8.45;2.33;;;;;;;7.24;72.43;99617.75;1739020;81;21108;-71
2021/04/23 04:45:45;;;;;;;5.87;2.52;;;;;;;6.84;72.51;99620.42;1737836;80;21206;-72
2021/04/23 04:48:13;;;;;;;5.67;2.10;;;;;;;6.60;72.88;99619.93;1750616;81;21102;-71
2021/04/23 04:50:56;;;;;;;6.40;2.33;;;;;;;6.41;72.97;99620.54;1747855;81;21202;-72
2021/04/23 04:53:24;;;;;;;7.70;2.40;;;;;;;6.16;72.73;99623.47;1751277;80;21202;-72
2021/04/23 04:55:55;;;;;;;7.05;2.25;;;;;;;5.87;73.04;99617.85;1761853;80;21034;-72
2021/04/23 04:58:27;;;;;;;3.80;1.95;;;;;;;5.93;73.30;99622.42;1766919;80;21643;-72
2021/04/23 05:00:54;;;;;;;6.30;2.45;;;;;;;6.44;73.72;99628.22;1765009;80;21678;-71
2021/04/23 05:03:21;;;;;;;;;;;;;;;6.83;73.06;99635.58;1768171;80;21286;-72
2021/04/23 05:05:49;;;;;;;3.80;1.87;;;;;;;7.03;72.69;99634.06;1765855;80;21202;-71
2021/04/23 05:08:16;;;;;;;;;;;;;;;7.49;72.62;99619.48;1770627;80;21171;-71
2021/04/23 05:10:44;;;;;;;;;;;;;;;7.34;71.77;99615.23;1767039;79;20550;-72
2021/04/23 05:13:11;;;;;;;7.37;2.50;;;;;;;7.05;71.58;99627.08;1768830;80;20277;-71
2021/04/23 05:15:39;;;;;;;10.38;3.35;;;;;;;7.42;72.95;99628.37;1768531;79;21219;-70
2021/04/23 05:18:06;;;;;;;7.20;2.62;;;;;;;8.69;73.14;99626.14;1764373;80;21209;-70
2021/04/23 05:20:35;;;;;;;21.10;3.08;;;;;;;9.90;72.63;99626.08;1766213;80;21243;-69
2021/04/23 05:23:04;;;;;;;78.12;8.03;;;;;;;11.09;71.69;99617.31;1766998;79;21077;-72
2021/04/23 05:25:35;;;;;;;44.03;9.98;;;;;;;12.20;71.68;99614.46;1742543;80;21818;-70
2021/04/23 05:28:04;;;;;;;42.45;13.93;;;;;;;12.88;69.88;99614.09;1771192;80;21175;-68
2021/04/23 05:30:35;;;;;;;55.98;11.08;;;;;;;13.23;70.02;99623.42;1767729;80;21197;-70
2021/04/23 05:33:07;;;;;;;19.00;6.72;;;;;;;13.76;69.74;99621.98;1771999;80;21250;-72
2021/04/23 05:35:35;;;;;;;21.90;4.70;;;;;;;14.26;69.75;99615.32;1766508;80;21227;-72
2021/04/23 05:38:03;;;;;;;32.20;3.98;;;;;;;14.70;68.83;99626.91;1764618;79;22372;-73
2021/04/23 05:43:28;;;;;;;10.50;2.35;;;;;;;15.16;68.06;99616.42;1793011;78;22668;-71
2021/04/23 05:45:55;;;;;;;;;;;;;;;14.97;67.34;99617.64;1771212;80;20999;-71
2021/04/23 05:48:24;;;;;;;5.28;1.70;;;;;;;14.77;66.23;99628.66;1769361;80;21199;-72
2021/04/23 05:50:51;;;;;;;3.83;1.80;;;;;;;14.61;66.63;99635.86;1751879;80;21029;-71
2021/04/23 05:53:18;;;;;;;4.90;2.20;;;;;;;14.67;66.05;99632.82;1769170;80;21080;-73
2021/04/23 05:55:46;;;;;;;;;;;;;;;14.75;66.25;99633.16;1774640;80;20973;-72
2021/04/23 05:58:13;;;;;;;16.65;3.47;;;;;;;14.98;65.54;99635.13;1770105;79;20725;-72
2021/04/23 06:00:42;;;;;;;;;;;;;;;14.93;65.73;99645.10;1767602;79;21153;-72
2021/04/23 06:03:12;;;;;;;16.52;3.35;;;;;;;14.94;64.96;99645.94;1768051;78;20175;-72
2021/04/23 06:05:39;;;;;;;8.30;2.90;;;;;;;15.11;65.80;99640.86;1735758;80;21092;-72
2021/04/23 06:08:10;;;;;;;11.30;3.02;;;;;;;15.31;65.30;99636.41;1768892;80;21664;-73
2021/04/23 06:10:39;;;;;;;14.93;2.92;;;;;;;14.94;62.14;99644.63;1767226;79;21139;-72
2021/04/23 06:13:06;;;;;;;32.05;6.78;;;;;;;14.43;61.95;99643.97;1767457;79;21760;-72
2021/04/23 06:15:33;;;;;;;16.10;3.80;;;;;;;14.05;63.54;99647.23;1765311;79;21149;-72
2021/04/23 06:18:00;;;;;;;;;;;;;;;13.92;56.89;99646.34;1725570;80;22311;-72
2021/04/23 06:20:31;;;;;;;9.38;2.17;;;;;;;13.39;61.49;99650.45;1769916;80;21113;-71
2021/04/23 06:23:00;;;;;;;63.78;9.98;;;;;;;13.04;60.55;99654.65;1745616;80;21036;-72
2021/04/23 06:25:28;;;;;;;106.52;19.12;;;;;;;12.93;61.58;99650.50;1770941;79;21839;-72
2021/04/23 06:27:56;;;;;;;24.75;5.78;;;;;;;12.84;61.97;99649.73;1774762;79;21262;-71
2021/04/23 06:30:28;;;;;;;3.25;1.60;;;;;;;12.91;61.15;99647.98;1773203;80;21211;-75
2021/04/23 06:33:01;;;;;;;19.40;4.72;;;;;;;12.70;58.55;99657.91;1767134;80;21195;-74
2021/04/23 06:35:32;;;;;;;37.10;6.65;;;;;;;12.19;58.85;99659.91;1766943;79;22382;-71
2021/04/23 06:37:59;;;;;;;3.47;1.20;;;;;;;11.99;60.28;99657.53;1768844;80;22449;-70
2021/04/23 06:40:27;;;;;;;4.25;1.20;;;;;;;11.99;59.39;99674.55;1766895;80;21183;-73
2021/04/23 06:42:54;;;;;;;3.12;1.07;;;;;;;11.95;56.47;99675.15;1769864;80;21046;-73
2021/04/23 06:45:23;;;;;;;2.72;0.70;;;;;;;11.52;57.21;99672.63;1771433;80;21673;-73
2021/04/23 06:47:50;;;;;;;6.58;1.20;;;;;;;11.16;57.91;99685.34;1761046;79;21144;-72
2021/04/23 06:50:20;;;;;;;2.65;1.17;;;;;;;11.29;58.65;99675.96;1766530;79;21142;-72
2021/04/23 06:52:48;;;;;;;3.25;1.72;;;;;;;11.22;57.81;99686.80;1768079;80;21199;-72
2021/04/23 06:55:18;;;;;;;3.90;1.20;;;;;;;11.00;58.40;99681.80;1766388;79;21187;-72
2021/04/23 06:57:45;;;;;;;2.67;0.88;;;;;;;10.93;58.06;99683.88;1747960;80;21187;-70
2021/04/23 07:00:18;;;;;;;1.82;0.80;;;;;;;11.03;55.48;99689.48;1765441;79;21175;-72
2021/04/23 07:02:45;;;;;;;1.77;0.53;;;;;;;10.07;53.85;99687.91;1770463;79;22394;-72
2021/04/23 07:05:14;;;;;;;1.80;1.07;;;;;;;10.18;54.86;99696.55;1769072;79;21662;-70
2021/04/23 07:07:41;;;;;;;2.80;0.88;;;;;;;10.17;55.78;99698.78;1747566;80;21213;-72
2021/04/23 07:10:14;;;;;;;0.85;0.50;;;;;;;9.78;52.79;99710.09;1766519;80;21215;-72
2021/04/23 07:12:42;;;;;;;0.90;0.47;;;;;;;9.26;53.49;99711.02;1766344;79;21226;-71
2021/04/23 07:15:16;;;;;;;0.82;0.53;;;;;;;9.08;53.62;99701.77;1766362;79;21258;-71
2021/04/23 07:17:43;;;;;;;2.25;0.60;;;;;;;8.97;54.71;99706.57;1769841;80;21631;-68
2021/04/23 07:20:13;;;;;;;1.87;0.55;;;;;;;8.67;54.80;99699.08;1765711;79;21588;-68
2021/04/23 07:22:40;;;;;;;1.47;0.55;;;;;;;8.26;51.65;99713.66;1767654;79;21123;-69
2021/04/23 07:25:08;;;;;;;1.37;0.47;;;;;;;8.26;51.65;99713.66;1767263;80;27227;-67
2021/04/23 07:27:36;;;;;;;0.65;0.45;;;;;;;7.83;49.92;99735.59;1771812;79;21590;-68
2021/04/23 07:30:04;;;;;;;;;;;;;;;7.59;53.52;99731.28;1774868;80;21200;-68
2021/04/23 07:32:31;;;;;;;2.75;0.40;;;;;;;7.54;51.70;99727.98;1769211;79;20219;-69
2021/04/23 07:34:58;;;;;;;0.28;0.25;;;;;;;7.62;54.51;99733.31;1769047;79;21178;-67
2021/04/23 07:37:26;;;;;;;0.95;0.37;;;;;;;7.83;54.03;99744.69;1763007;80;21050;-68
2021/04/23 07:39:53;;;;;;;3.45;0.50;;;;;;;7.90;54.32;99744.45;1746460;80;22220;-68
2021/04/23 07:42:20;;;;;;;0.85;0.72;;;;;;;7.66;53.10;99743.59;1773855;80;21202;-67
2021/04/23 07:44:47;;;;;;;1.95;0.53;;;;;;;7.67;50.10;99761.72;1771765;80;21218;-67
2021/04/23 07:47:14;;;;;;;1.30;0.30;;;;;;;7.22;52.30;99754.58;1769915;80;21156;-67
2021/04/23 07:49:42;;;;;;;1.17;0.42;;;;;;;7.29;53.04;99763.88;1771035;80;21172;-68
2021/04/23 07:52:09;;;;;;;1.10;0.47;;;;;;;7.29;52.39;99770.38;1771249;79;21598;-68
2021/04/23 07:54:36;;;;;;;0.30;0.20;;;;;;;7.02;48.33;99764.77;1771899;80;21389;-69
2021/04/23 07:57:06;;;;;;;1.25;0.40;;;;;;;6.72;49.27;99770.89;1768120;80;21227;-68
2021/04/23 07:59:33;;;;;;;1.10;0.35;;;;;;;6.71;51.10;99765.73;1765915;80;21122;-69
2021/04/23 08:02:02;;;;;;;1.67;0.60;;;;;;;6.87;52.32;99773.45;1768207;80;21219;-70
2021/04/23 08:04:32;;;;;;;1.25;0.75;;;;;;;7.15;51.04;99784.27;1768575;80;21144;-69
2021/04/23 08:06:59;;;;;;;1.40;0.85;;;;;;;6.91;46.89;99771.14;1770026;79;21339;-68
2021/04/23 08:09:26;;;;;;;2.20;0.88;;;;;;;6.94;50.64;99772.34;1772923;79;21174;-68
2021/04/23 08:11:53;;;;;;;1.87;0.95;;;;;;;7.17;51.40;99773.39;1775411;80;21151;-68
2021/04/23 08:14:20;;;;;;;1.02;0.70;;;;;;;7.28;51.86;99769.98;1775147;79;21538;-68
2021/04/23 08:16:49;;;;;;;1.67;0.60;;;;;;;7.22;49.22;99777.95;1769755;79;21206;-69
2021/04/23 08:19:16;;;;;;;0.98;0.37;;;;;;;7.15;49.54;99779.06;1772481;79;21053;-70
2021/04/23 08:21:43;;;;;;;1.30;0.62;;;;;;;7.21;48.85;99776.27;1772506;80;21249;-70
2021/04/23 08:24:13;;;;;;;1.20;0.40;;;;;;;7.23;50.05;99776.23;1721050;79;21134;-69
2021/04/23 08:26:42;;;;;;;;;;;;;;;7.34;50.33;99778.87;1722389;81;21320;-70
2021/04/23 08:31:47;;;;;;;2.02;0.33;;;;;;;7.45;49.04;99771.15;1824903;77;22579;-69
2021/04/23 08:34:16;;;;;;;2.33;0.20;;;;;;;7.51;46.64;99781.36;1798426;78;21612;-69
2021/04/23 08:36:43;;;;;;;1.60;0.35;;;;;;;7.51;48.88;99781.36;1796311;78;21323;-69
2021/04/23 08:39:12;;;;;;;0.80;0.25;;;;;;;7.46;48.48;99783.25;1796168;77;21058;-69
2021/04/23 08:41:40;;;;;;;1.52;0.20;;;;;;;7.71;50.31;99779.37;1798376;77;21212;-68
2021/04/23 08:44:09;;;;;;;0.70;0.20;;;;;;;8.03;48.83;99780.83;1797499;78;21062;-69
2021/04/23 08:46:39;;;;;;;1.72;0.40;;;;;;;7.80;46.69;99801.98;1803468;78;21158;-69
2021/04/23 08:49:09;;;;;;;2.00;0.82;;;;;;;7.39;43.19;99804.25;1786695;78;21218;-69
2021/04/23 08:51:37;;;;;;;1.25;0.70;;;;;;;7.11;43.14;99808.61;1802121;77;21029;-69
2021/04/23 08:54:05;;;;;;;0.60;0.30;;;;;;;6.97;42.37;99813.39;1800759;78;21694;-69
2021/04/23 08:56:32;;;;;;;0.88;0.30;;;;;;;6.93;44.59;99809.59;1798022;78;21129;-69
2021/04/23 08:58:59;;;;;;;0.80;0.37;;;;;;;6.83;45.10;99810.76;1797210;78;21190;-69
2021/04/23 09:01:26;;;;;;;0.78;0.30;;;;;;;6.91;45.96;99817.87;1796729;78;22031;-70
2021/04/23 09:03:54;;;;;;;1.90;0.50;;;;;;;6.98;45.22;99809.91;1796678;78;21052;-69
2021/04/23 09:06:26;;;;;;;0.82;0.40;;;;;;;7.05;45.22;99814.84;1798514;78;28315;-69
2021/04/23 09:08:59;;;;;;;0.82;0.20;;;;;;;7.09;46.61;99805.23;1799408;77;21268;-70
2021/04/23 09:11:35;;;;;;;1.70;0.40;;;;;;;7.10;43.63;99823.34;1747532;80;21503;-72
2021/04/23 09:14:12;;;;;;;0.10;0.10;;;;;;;7.02;40.92;99818.00;1730564;81;22653;-69
2021/04/23 09:16:56;;;;;;;0.85;0.30;;;;;;;6.86;40.19;99827.56;1755986;80;21376;-70
2021/04/23 09:19:32;;;;;;;0.82;0.20;;;;;;;6.87;43.60;99812.84;1741392;81;21605;-70
2021/04/23 09:22:09;;;;;;;0.78;0.20;;;;;;;7.07;41.93;99820.00;1736428;80;21240;-71
2021/04/23 09:24:38;;;;;;;;;;;;;;;7.36;44.83;99819.91;1738916;81;21204;-70
2021/04/23 09:27:16;;;;;;;0.47;0.15;;;;;;;7.87;44.40;99826.46;1741997;80;22173;-70
2021/04/23 09:29:59;;;;;;;0.40;0.23;;;;;;;8.11;44.50;99801.36;1810728;77;27861;-69
2021/04/23 09:32:39;;;;;;;1.17;0.47;;;;;;;8.29;43.24;99810.66;1802087;78;21178;-68
2021/04/23 09:35:16;;;;;;;1.82;0.40;;;;;;;8.18;41.67;99817.16;1801506;78;21314;-71
2021/04/23 09:37:53;;;;;;;1.90;0.20;;;;;;;8.36;44.25;99815.63;1797977;77;21183;-70
2021/04/23 09:40:34;;;;;;;0.70;0.28;;;;;;;8.25;40.96;99814.26;1796150;78;21040;-70
2021/04/23 09:43:05;;;;;;;1.80;0.40;;;;;;;8.03;42.32;99821.13;1784201;78;21004;-71
2021/04/23 09:45:36;;;;;;;1.00;0.33;;;;;;;7.85;41.86;99826.08;1798881;77;21570;-70
2021/04/23 09:48:03;;;;;;;2.27;0.40;;;;;;;7.96;42.90;99820.52;1766831;78;21228;-69
2021/04/23 09:50:34;;;;;;;1.15;0.40;;;;;;;8.14;42.66;99822.91;1799776;78;21116;-71
2021/04/23 09:53:01;;;;;;;2.33;0.30;;;;;;;8.15;43.40;99820.72;1800056;78;21009;-70
2021/04/23 09:55:32;;;;;;;0.42;0.20;;;;;;;8.36;43.49;99828.64;1797464;78;21593;-71
2021/04/23 09:58:03;;;;;;;0.72;0.30;;;;;;;8.53;41.02;99830.66;1795331;78;21271;-71
2021/04/23 10:00:35;;;;;;;0.60;0.25;;;;;;;8.14;40.14;99822.91;1800231;77;21182;-68
2021/04/23 10:03:05;;;;;;;1.02;0.30;;;;;;;7.94;41.62;99842.27;1797255;77;21068;-69
2021/04/23 10:05:42;;;;;;;0.57;0.23;;;;;;;7.48;40.44;99835.99;1802505;78;21112;-68
2021/04/23 10:08:12;;;;;;;2.40;0.30;;;;;;;7.05;39.96;99835.62;1763982;80;21184;-69
2021/04/23 10:10:44;;;;;;;0.75;0.20;;;;;;;7.01;41.31;99838.38;1746494;80;21748;-70
2021/04/23 10:13:15;;;;;;;0.57;0.30;;;;;;;7.15;40.91;99834.89;1762397;79;21682;-69
2021/04/23 10:15:45;;;;;;;1.02;0.55;;;;;;;7.24;39.85;99826.80;1743621;81;21231;-68
2021/04/23 10:18:14;;;;;;;1.17;0.20;;;;;;;7.27;41.83;99828.00;1747037;81;21562;-68
2021/04/23 10:20:47;;;;;;;0.75;0.28;;;;;;;7.37;41.87;99829.41;1745736;79;21699;-68
2021/04/23 10:23:22;;;;;;;0.55;0.30;;;;;;;7.62;42.04;99834.66;1749375;81;21088;-68
2021/04/23 10:25:53;;;;;;;4.37;0.50;;;;;;;7.74;41.63;99837.29;1747188;79;21206;-68
2021/04/23 10:28:24;;;;;;;0.20;0.13;;;;;;;7.65;41.90;99840.66;1752788;81;21172;-69
2021/04/23 10:30:54;;;;;;;0.82;0.28;;;;;;;7.92;42.61;99838.86;1743738;81;21249;-70
2021/04/23 10:33:24;;;;;;;0.70;0.20;;;;;;;7.85;41.13;99839.53;1740454;80;21281;-69
2021/04/23 10:35:55;;;;;;;1.50;0.30;;;;;;;7.53;41.31;99839.30;1752413;79;21180;-68
2021/04/23 10:38:32;;;;;;;1.55;0.30;;;;;;;7.47;42.17;99842.09;1742077;79;21263;-69
2021/04/23 10:41:05;;;;;;;1.05;0.28;;;;;;;7.36;39.36;99854.97;1748090;81;21188;-68
2021/04/23 10:43:34;;;;;;;1.22;0.30;;;;;;;7.37;40.99;99847.60;1743159;81;21638;-68
2021/04/23 10:46:12;;;;;;;0.50;0.20;;;;;;;7.55;40.79;99849.20;1744888;80;21669;-69
2021/04/23 10:48:43;;;;;;;2.83;0.30;;;;;;;7.67;41.65;99849.23;1740096;80;21201;-68
2021/04/23 10:51:25;;;;;;;0.40;0.33;;;;;;;7.68;41.17;99849.66;1749643;79;21213;-68
2021/04/23 10:53:55;;;;;;;2.72;0.30;;;;;;;7.62;39.69;99857.20;1743139;80;21274;-69
2021/04/23 10:56:37;;;;;;;1.55;0.20;;;;;;;7.63;41.17;99853.70;1745427;81;21227;-70
2021/04/23 10:59:32;;;;;;;1.10;0.40;;;;;;;7.59;39.14;99875.50;1746419;81;21167;-69
2021/04/23 11:02:18;;;;;;;5.30;0.60;;;;;;;7.25;39.64;99864.01;1740329;81;21240;-68
2021/04/23 11:05:00;;;;;;;6.87;1.10;;;;;;;7.32;40.46;99870.27;1754752;79;21701;-70
2021/04/23 11:07:29;;;;;;;0.47;0.30;;;;;;;7.74;41.68;99860.69;1727967;82;21277;-69
2021/04/23 11:10:07;;;;;;;2.65;0.50;;;;;;;8.03;39.48;99858.38;1736086;80;21664;-68
2021/04/23 11:12:35;;;;;;;2.02;0.35;;;;;;;8.01;39.35;99873.20;1762237;79;21124;-67
2021/04/23 11:15:16;;;;;;;1.05;0.40;;;;;;;8.09;39.33;99869.02;1729894;80;21277;-69
2021/04/23 11:17:44;;;;;;;0.93;0.20;;;;;;;7.95;38.71;99876.45;1761384;80;21377;-70
2021/04/23 11:20:30;;;;;;;0.28;0.10;;;;;;;7.69;38.37;99866.48;1734649;81;21057;-69
2021/04/23 11:22:59;;;;;;;1.82;0.20;;;;;;;7.51;38.55;99891.78;1732227;81;22251;-69
2021/04/23 11:25:27;;;;;;;0.82;0.30;;;;;;;7.52;38.84;99875.28;1739796;80;22624;-69
2021/04/23 11:28:05;;;;;;;0.42;0.25;;;;;;;7.44;37.91;99879.41;1732722;81;21219;-68
2021/04/23 11:31:02;;;;;;;0.60;0.30;;;;;;;7.49;38.58;99876.69;1734773;81;21708;-70
2021/04/23 11:33:50;;;;;;;0.40;0.20;;;;;;;7.67;37.98;99881.27;1737439;81;21214;-69
2021/04/23 11:36:31;;;;;;;0.53;0.20;;;;;;;7.42;36.27;99914.13;1728184;81;21035;-69
2021/04/23 11:39:04;;;;;;;3.00;0.50;;;;;;;7.62;38.56;99890.98;1739215;81;21164;-69
2021/04/23 11:42:01;;;;;;;3.47;0.85;;;;;;;8.12;38.29;99883.22;1863303;75;24094;-69
2021/04/23 11:44:47;;;;;;;5.42;0.90;;;;;;;8.16;38.16;99905.63;1821193;75;21579;-68
2021/04/23 11:47:27;;;;;;;0.60;0.20;;;;;;;8.15;38.77;99889.64;1836626;76;21256;-68
2021/04/23 11:50:28;;;;;;;2.98;0.50;;;;;;;8.14;35.80;99881.42;1842457;76;21656;-68
2021/04/23 11:52:58;;;;;;;1.57;0.40;;;;;;;7.67;35.31;99893.41;1834569;76;21540;-68
2021/04/23 11:55:31;;;;;;;0.82;0.35;;;;;;;7.24;36.27;99900.83;1834052;75;21048;-70
2021/04/23 11:58:12;;;;;;;0.28;0.28;;;;;;;7.22;35.74;99894.81;1838437;77;21041;-69
2021/04/23 12:00:42;;;;;;;3.08;0.68;;;;;;;7.05;36.17;99907.47;1841363;76;21202;-69
2021/04/23 12:03:14;;;;;;;0.37;0.20;;;;;;;7.18;37.08;99902.31;1836207;76;21060;-69
2021/04/23 12:08:33;;;;;;;3.40;0.20;;;;;;;7.20;35.98;99901.83;1825268;77;22334;-68